createdAt,value
2023-01-20T00:01:26.036Z,101445.59
2023-01-20T00:03:54.849Z,101447.59
2023-01-20T00:06:23.323Z,101454.08
2023-01-20T00:08:55.701Z,101457.52
2023-01-20T00:11:23.697Z,101466.00
2023-01-20T00:13:56.292Z,101458.36
2023-01-20T00:16:24.804Z,101452.61
2023-01-20T00:18:52.672Z,101445.98
2023-01-20T00:21:20.574Z,101439.59
2023-01-20T00:23:48.451Z,101440.94
2023-01-20T00:26:18.083Z,101438.46
2023-01-20T00:28:46.357Z,101440.55
2023-01-20T00:31:22.485Z,101441.04
2023-01-20T00:33:51.057Z,101440.29
2023-01-20T00:36:19.941Z,101436.00
2023-01-20T00:38:47.999Z,101435.70
2023-01-20T00:41:15.990Z,101438.36
2023-01-20T00:43:44.269Z,101435.30
2023-01-20T00:46:12.280Z,101432.98
2023-01-20T00:48:40.123Z,101430.86
2023-01-20T00:51:08.535Z,101432.84
2023-01-20T00:53:36.540Z,101435.98
2023-01-20T00:56:04.604Z,101439.42
2023-01-20T00:58:32.786Z,101433.98
2023-01-20T01:01:00.584Z,101437.04
2023-01-20T01:03:28.808Z,101434.61
2023-01-20T01:06:09.374Z,101431.61
2023-01-20T01:08:37.483Z,101431.14
2023-01-20T01:11:05.589Z,101433.63
2023-01-20T01:13:33.443Z,101430.81
2023-01-20T01:16:01.723Z,101428.11
2023-01-20T01:18:29.786Z,101424.73
2023-01-20T01:20:57.577Z,101419.64
2023-01-20T01:23:25.800Z,101417.05
2023-01-20T01:25:53.560Z,101421.20
2023-01-20T01:28:21.369Z,101416.50
2023-01-20T01:30:49.238Z,101411.73
2023-01-20T01:33:17.008Z,101412.37
2023-01-20T01:35:44.871Z,101412.59
2023-01-20T01:38:12.679Z,101413.66
2023-01-20T01:40:40.535Z,101420.90
2023-01-20T01:43:19.500Z,101417.84
2023-01-20T01:45:47.590Z,101416.91
2023-01-20T01:48:15.366Z,101416.11
2023-01-20T01:50:46.457Z,101418.22
2023-01-20T01:53:14.594Z,101417.22
2023-01-20T01:55:47.104Z,101416.35
2023-01-20T01:58:16.566Z,101419.05
2023-01-20T02:00:44.712Z,101422.69
2023-01-20T02:03:12.579Z,101425.62
2023-01-20T02:09:51.204Z,101417.39
2023-01-20T02:12:20.111Z,101415.88
2023-01-20T02:14:55.451Z,101417.36
2023-01-20T02:17:27.034Z,101421.38
2023-01-20T02:20:25.791Z,101425.96
2023-01-20T02:23:09.221Z,101425.65
2023-01-20T02:26:15.790Z,101430.77
2023-01-20T02:29:02.509Z,101427.52
2023-01-20T02:31:49.215Z,101426.13
2023-01-20T02:34:35.789Z,101423.56
2023-01-20T02:37:10.918Z,101420.25
2023-01-20T02:40:04.431Z,101417.67
2023-01-20T02:42:52.328Z,101419.27
2023-01-20T02:45:24.511Z,101418.96
2023-01-20T02:47:57.591Z,101422.91
2023-01-20T02:50:46.305Z,101427.41
2023-01-20T02:53:14.208Z,101419.52
2023-01-20T02:55:45.121Z,101422.27
2023-01-20T02:58:39.334Z,101423.55
2023-01-20T03:01:27.026Z,101423.77
2023-01-20T03:03:55.657Z,101424.59
2023-01-20T03:06:25.296Z,101421.27
2023-01-20T03:08:53.697Z,101419.30
2023-01-20T03:11:21.697Z,101416.50
2023-01-20T03:14:07.185Z,101416.45
2023-01-20T03:16:35.228Z,101410.38
2023-01-20T03:19:03.338Z,101409.27
2023-01-20T03:21:32.121Z,101410.45
2023-01-20T03:24:04.712Z,101402.08
2023-01-20T03:26:32.639Z,101401.91
2023-01-20T03:29:05.853Z,101402.11
2023-01-20T03:31:37.274Z,101396.27
2023-01-20T03:34:11.592Z,101402.78
2023-01-20T03:36:39.852Z,101402.63
2023-01-20T03:39:08.257Z,101398.91
2023-01-20T03:41:57.324Z,101398.72
2023-01-20T03:44:28.324Z,101394.94
2023-01-20T03:47:02.751Z,101399.15
2023-01-20T03:49:36.204Z,101400.98
2023-01-20T03:52:11.760Z,101398.72
2023-01-20T03:54:58.538Z,101399.20
2023-01-20T03:57:29.919Z,101399.21
2023-01-20T03:59:57.741Z,101400.77
2023-01-20T04:02:25.613Z,101403.24
2023-01-20T04:04:53.675Z,101403.92
2023-01-20T04:07:24.577Z,101401.99
2023-01-20T04:09:56.525Z,101400.35
2023-01-20T04:12:25.901Z,101395.43
2023-01-20T04:14:57.496Z,101397.04
2023-01-20T04:17:29.605Z,101396.45
2023-01-20T04:19:57.793Z,101398.30
2023-01-20T04:22:39.136Z,101396.58
2023-01-20T04:25:23.245Z,101400.28
2023-01-20T04:27:51.353Z,101398.06
2023-01-20T04:30:19.492Z,101393.29
2023-01-20T04:32:47.911Z,101392.01
2023-01-20T04:35:17.432Z,101392.34
2023-01-20T04:37:45.561Z,101393.22
2023-01-20T04:40:14.351Z,101395.03
2023-01-20T04:42:42.469Z,101393.40
2023-01-20T04:45:11.416Z,101398.72
2023-01-20T04:47:39.286Z,101397.25
2023-01-20T04:50:08.097Z,101401.48
2023-01-20T04:52:36.328Z,101397.93
2023-01-20T04:55:04.658Z,101405.33
2023-01-20T04:57:33.065Z,101403.52
2023-01-20T05:00:01.338Z,101402.29
2023-01-20T05:02:29.360Z,101401.38
2023-01-20T05:04:57.675Z,101404.11
2023-01-20T05:07:25.836Z,101408.77
2023-01-20T05:09:53.900Z,101412.40
2023-01-20T05:12:22.551Z,101414.34
2023-01-20T05:14:50.603Z,101413.75
2023-01-20T05:17:18.480Z,101410.73
2023-01-20T05:19:47.057Z,101415.57
2023-01-20T05:22:15.031Z,101409.82
2023-01-20T05:24:42.844Z,101410.30
2023-01-20T05:27:10.702Z,101407.70
2023-01-20T05:29:38.479Z,101401.59
2023-01-20T05:32:12.318Z,101408.22
2023-01-20T05:34:41.916Z,101410.44
2023-01-20T05:37:09.547Z,101416.38
2023-01-20T05:39:37.495Z,101418.89
2023-01-20T05:42:06.203Z,101423.79
2023-01-20T05:44:33.938Z,101422.06
2023-01-20T05:47:02.229Z,101423.28
2023-01-20T05:49:30.972Z,101424.79
2023-01-20T05:52:01.412Z,101421.48
2023-01-20T05:54:30.097Z,101421.83
2023-01-20T05:57:00.871Z,101421.09
2023-01-20T05:59:33.985Z,101421.73
2023-01-20T06:02:05.636Z,101418.19
2023-01-20T06:04:35.434Z,101419.61
2023-01-20T06:07:03.660Z,101419.61
2023-01-20T06:09:31.624Z,101417.83
2023-01-20T06:11:59.642Z,101413.69
2023-01-20T06:14:28.980Z,101414.69
2023-01-20T06:16:57.015Z,101407.17
2023-01-20T06:19:28.458Z,101407.50
2023-01-20T06:21:57.009Z,101408.78
2023-01-20T06:24:25.333Z,101404.63
2023-01-20T06:26:55.222Z,101406.23
2023-01-20T06:29:25.436Z,101408.70
2023-01-20T06:31:58.107Z,101410.27
2023-01-20T06:34:29.406Z,101408.48
2023-01-20T06:36:58.859Z,101411.13
2023-01-20T06:39:30.433Z,101410.77
2023-01-20T06:42:02.337Z,101408.11
2023-01-20T06:44:32.403Z,101406.52
2023-01-20T06:47:01.544Z,101406.08
2023-01-20T06:49:31.739Z,101400.23
2023-01-20T06:52:01.979Z,101399.16
2023-01-20T06:54:31.659Z,101396.39
2023-01-20T06:57:03.955Z,101395.04
2023-01-20T06:59:33.940Z,101399.10
2023-01-20T07:02:02.552Z,101396.23
2023-01-20T08:33:19.865Z,101401.67
2023-01-20T08:35:48.544Z,101400.80
2023-01-20T08:38:16.693Z,101402.45
2023-01-20T08:40:45.027Z,101397.46
2023-01-20T08:43:12.966Z,101395.95
2023-01-20T08:45:44.222Z,101397.52
2023-01-20T08:48:11.992Z,101391.04
2023-01-20T08:50:39.927Z,101388.16
2023-01-20T08:53:07.718Z,101388.50
2023-01-20T08:55:35.665Z,101380.08
2023-01-20T08:58:03.741Z,101376.52
2023-01-20T09:00:31.937Z,101370.73
2023-01-20T09:03:00.138Z,101366.59
2023-01-20T09:05:28.153Z,101366.24
2023-01-20T09:07:56.096Z,101363.02
2023-01-20T09:10:24.517Z,101360.42
2023-01-20T09:12:52.478Z,101356.77
2023-01-20T09:15:21.267Z,101350.73
2023-01-20T09:17:49.238Z,101347.77
2023-01-20T09:20:17.574Z,101342.86
2023-01-20T09:22:45.881Z,101335.13
2023-01-20T09:25:13.921Z,101329.45
2023-01-20T09:27:42.253Z,101337.11
2023-01-20T09:30:10.716Z,101329.23
2023-01-20T09:32:38.710Z,101331.27
2023-01-20T09:35:07.531Z,101321.70
2023-01-20T09:37:54.180Z,101317.67
2023-01-20T09:40:43.125Z,101315.68
2023-01-20T09:43:55.173Z,101320.91
2023-01-20T09:46:39.747Z,101317.55
2023-01-20T09:49:48.861Z,101310.95
2023-01-20T09:52:55.426Z,101311.39
2023-01-20T09:55:42.003Z,101309.28
2023-01-20T09:58:33.338Z,101306.55
2023-01-20T10:01:12.798Z,101312.49
2023-01-20T10:03:52.668Z,101305.29
2023-01-20T10:06:42.478Z,101302.80
2023-01-20T10:09:22.029Z,101304.75
2023-01-20T10:11:50.356Z,101302.79
2023-01-20T10:14:29.455Z,101303.48
2023-01-20T10:17:12.446Z,101295.95
2023-01-20T10:20:03.635Z,101299.55
2023-01-20T10:22:42.068Z,101293.52
2023-01-20T10:25:37.992Z,101294.98
2023-01-20T10:28:16.343Z,101286.35
2023-01-20T10:30:47.035Z,101295.73
2023-01-20T10:33:21.514Z,101293.76
2023-01-20T10:35:52.500Z,101289.21
2023-01-20T10:38:44.766Z,101287.95
2023-01-20T10:41:44.869Z,101289.56
2023-01-20T10:44:14.579Z,101283.83
2023-01-20T10:46:59.689Z,101279.14
2023-01-20T10:49:57.049Z,101276.15
2023-01-20T10:52:53.265Z,101266.46
2023-01-20T10:55:43.735Z,101258.89
2023-01-20T10:58:25.062Z,101252.45
2023-01-20T11:00:54.228Z,101251.67
2023-01-20T11:03:23.756Z,101245.44
2023-01-20T11:05:53.003Z,101245.15
2023-01-20T11:08:28.852Z,101243.63
2023-01-20T11:11:02.187Z,101241.48
2023-01-20T11:13:30.904Z,101245.48
2023-01-20T11:16:01.738Z,101239.84
2023-01-20T11:18:31.343Z,101235.71
2023-01-20T11:21:08.104Z,101234.98
2023-01-20T11:23:38.992Z,101233.48
2023-01-20T11:26:22.418Z,101227.81
2023-01-20T11:28:57.465Z,101226.56
2023-01-20T11:31:42.155Z,101223.63
2023-01-20T11:34:39.688Z,101225.06
2023-01-20T11:37:11.164Z,101228.61
2023-01-20T11:39:56.532Z,101227.45
2023-01-20T11:42:25.466Z,101226.00
2023-01-20T11:44:53.255Z,101232.81
2023-01-20T11:47:27.299Z,101229.42
2023-01-20T11:50:08.280Z,101228.94
2023-01-20T11:52:37.247Z,101226.40
2023-01-20T11:55:15.255Z,101221.35
2023-01-20T11:57:53.075Z,101223.39
2023-01-20T12:00:21.228Z,101219.55
2023-01-20T12:03:04.673Z,101223.46
2023-01-20T12:05:41.109Z,101221.12
2023-01-20T12:08:13.841Z,101224.70
2023-01-20T12:10:41.895Z,101213.84
2023-01-20T12:13:20.775Z,101216.52
2023-01-20T12:15:55.626Z,101217.99
2023-01-20T12:19:01.790Z,101223.45
2023-01-20T12:21:35.056Z,101217.42
2023-01-20T12:24:30.146Z,101213.36
2023-01-20T12:27:04.048Z,101212.95
2023-01-20T12:29:45.305Z,101215.27
2023-01-20T12:32:14.039Z,101208.83
2023-01-20T12:34:42.546Z,101211.59
2023-01-20T12:37:26.179Z,101209.00
2023-01-20T12:40:16.645Z,101200.09
2023-01-20T12:43:19.679Z,101200.64
2023-01-20T12:46:00.203Z,101190.19
2023-01-20T12:49:04.084Z,101190.89
2023-01-20T12:51:32.675Z,101192.58
2023-01-20T12:54:48.034Z,101192.63
2023-01-20T12:57:45.591Z,101202.27
2023-01-20T13:00:47.491Z,101206.91
2023-01-20T13:03:50.049Z,101200.71
2023-01-20T13:06:55.607Z,101207.05
2023-01-20T13:09:26.783Z,101209.11
2023-01-20T13:12:07.213Z,101202.39
2023-01-20T13:15:15.534Z,101212.06
2023-01-20T13:17:48.280Z,101212.02
2023-01-20T13:20:19.577Z,101215.77
2023-01-20T13:22:47.588Z,101215.88
2023-01-20T13:25:17.660Z,101221.63
2023-01-20T13:27:46.040Z,101217.09
2023-01-20T13:30:43.805Z,101217.58
2023-01-20T13:33:17.536Z,101222.89
2023-01-20T13:35:47.353Z,101217.52
2023-01-20T13:38:28.531Z,101217.54
2023-01-20T13:41:03.819Z,101206.21
2023-01-20T13:43:48.940Z,101205.91
2023-01-20T13:46:37.699Z,101204.58
2023-01-20T13:49:14.292Z,101202.02
2023-01-20T13:51:46.827Z,101211.99
2023-01-20T13:54:25.711Z,101213.00
2023-01-20T13:56:53.599Z,101214.65
2023-01-20T13:59:21.811Z,101204.31
2023-01-20T14:01:50.191Z,101193.91
2023-01-20T14:04:22.361Z,101201.16
2023-01-20T14:06:52.106Z,101197.92
2023-01-20T14:09:22.075Z,101192.91
2023-01-20T14:11:51.806Z,101189.02
2023-01-20T14:14:21.965Z,101178.55
2023-01-20T14:16:50.398Z,101179.69
2023-01-20T14:19:28.080Z,101173.93
2023-01-20T14:21:58.223Z,101170.48
2023-01-20T14:24:37.515Z,101171.59
2023-01-20T14:27:23.264Z,101165.02
2023-01-20T14:29:53.374Z,101164.63
2023-01-20T14:32:25.374Z,101166.55
2023-01-20T14:34:54.080Z,101160.30
2023-01-20T14:37:25.524Z,101164.13
2023-01-20T14:39:55.780Z,101166.39
2023-01-20T14:42:24.711Z,101166.15
2023-01-20T14:44:54.879Z,101165.92
2023-01-20T14:47:23.644Z,101168.16
2023-01-20T14:49:53.474Z,101159.30
2023-01-20T14:52:30.644Z,101161.11
2023-01-20T14:54:59.031Z,101158.29
2023-01-20T14:57:31.585Z,101150.65
2023-01-20T15:00:05.397Z,101159.48
2023-01-20T15:02:35.086Z,101158.30
2023-01-20T15:05:19.334Z,101159.30
2023-01-20T15:07:47.927Z,101156.58
2023-01-20T15:10:17.953Z,101162.66
2023-01-20T15:12:49.348Z,101163.44
2023-01-20T15:15:23.981Z,101167.44
2023-01-20T15:18:06.801Z,101160.88
2023-01-20T15:20:36.395Z,101161.55
2023-01-20T15:23:14.600Z,101164.66
2023-01-20T15:25:43.837Z,101164.16
2023-01-20T15:28:29.987Z,101165.05
2023-01-20T15:31:01.236Z,101163.62
2023-01-20T15:33:30.730Z,101170.41
2023-01-20T15:36:00.663Z,101166.35
2023-01-20T15:38:33.167Z,101159.88
2023-01-20T15:41:01.971Z,101158.98
2023-01-20T15:43:32.152Z,101156.42
2023-01-20T15:46:01.564Z,101161.41
2023-01-20T15:48:31.163Z,101161.73
2023-01-20T15:51:00.658Z,101162.67
2023-01-20T15:53:30.004Z,101159.33
2023-01-20T15:56:00.728Z,101156.48
2023-01-20T15:58:31.993Z,101153.73
2023-01-20T16:01:01.229Z,101148.19
2023-01-20T16:03:29.854Z,101150.55
2023-01-20T16:05:59.334Z,101152.49
2023-01-20T16:08:35.776Z,101147.34
2023-01-20T16:11:06.381Z,101149.55
2023-01-20T16:13:37.388Z,101145.09
2023-01-20T16:16:07.231Z,101147.80
2023-01-20T16:18:45.632Z,101149.98
2023-01-20T16:21:16.084Z,101152.14
2023-01-20T16:23:48.323Z,101154.73
2023-01-20T16:26:47.438Z,101147.44
2023-01-20T16:29:16.055Z,101148.17
2023-01-20T16:31:47.131Z,101150.16
2023-01-20T16:34:19.445Z,101157.05
2023-01-20T16:36:51.470Z,101159.18
2023-01-20T16:39:25.595Z,101159.42
2023-01-20T16:41:55.944Z,101156.61
2023-01-20T16:44:25.398Z,101158.20
2023-01-20T16:46:54.267Z,101156.84
2023-01-20T16:49:24.022Z,101154.52
2023-01-20T16:51:55.141Z,101143.53
2023-01-20T16:54:25.262Z,101141.63
2023-01-20T16:57:00.954Z,101146.02
2023-01-20T16:59:30.823Z,101145.02
2023-01-20T17:02:02.858Z,101143.77
2023-01-20T17:04:34.455Z,101137.23
2023-01-20T17:07:08.068Z,101132.08
2023-01-20T17:09:37.711Z,101124.86
2023-01-20T17:12:08.357Z,101125.49
2023-01-20T17:14:38.226Z,101127.49
2023-01-20T17:17:12.108Z,101125.95
2023-01-20T17:19:42.325Z,101121.42
2023-01-20T17:22:14.775Z,101121.11
2023-01-20T17:24:45.304Z,101125.77
2023-01-20T17:27:14.947Z,101126.52
2023-01-20T17:29:46.386Z,101128.70
2023-01-20T17:32:17.079Z,101130.38
2023-01-20T17:34:53.172Z,101125.20
2023-01-20T17:37:25.316Z,101123.92
2023-01-20T17:39:58.552Z,101123.96
2023-01-20T17:42:30.177Z,101123.21
2023-01-20T17:45:03.011Z,101122.88
2023-01-20T17:47:34.267Z,101116.52
2023-01-20T17:50:09.019Z,101111.60
2023-01-20T17:52:40.729Z,101107.60
2023-01-20T17:55:14.984Z,101101.31
2023-01-20T17:57:44.643Z,101101.92
2023-01-20T18:00:15.132Z,101099.85
2023-01-20T18:02:45.437Z,101101.35
2023-01-20T18:05:14.643Z,101105.65
2023-01-20T18:07:44.255Z,101106.69
2023-01-20T18:10:19.551Z,101109.92
2023-01-20T18:12:48.637Z,101108.27
2023-01-20T18:15:19.095Z,101105.19
2023-01-20T18:17:51.431Z,101108.25
2023-01-20T18:20:21.149Z,101106.54
2023-01-20T18:22:58.777Z,101102.61
2023-01-20T18:25:32.291Z,101100.60
2023-01-20T18:28:05.034Z,101104.73
2023-01-20T18:30:40.588Z,101102.10
2023-01-20T18:33:13.057Z,101101.55
2023-01-20T18:35:45.411Z,101100.71
2023-01-20T18:38:16.876Z,101097.90
2023-01-20T18:40:45.961Z,101097.27
2023-01-20T18:43:17.247Z,101100.95
2023-01-20T18:45:45.873Z,101098.54
2023-01-20T18:48:15.578Z,101097.42
2023-01-20T18:50:45.884Z,101099.80
2023-01-20T18:53:16.218Z,101097.16
2023-01-20T18:55:49.835Z,101098.65
2023-01-20T18:58:18.102Z,101098.20
2023-01-20T19:00:48.399Z,101094.74
2023-01-20T19:03:17.292Z,101092.79
2023-01-20T19:05:49.065Z,101093.07
2023-01-20T19:08:21.840Z,101086.77
2023-01-20T19:10:55.838Z,101089.66
2023-01-20T19:13:26.083Z,101089.09
2023-01-20T19:15:59.028Z,101091.46
2023-01-20T19:18:27.770Z,101099.91
2023-01-20T19:20:57.639Z,101102.33
2023-01-20T19:23:28.860Z,101102.75
2023-01-20T19:26:09.582Z,101116.22
2023-01-20T19:28:39.006Z,101112.69
2023-01-20T19:31:12.364Z,101111.83
2023-01-20T19:33:42.901Z,101109.45
2023-01-20T19:36:13.975Z,101105.33
2023-01-20T19:38:43.771Z,101102.84
2023-01-20T19:41:16.959Z,101095.67
2023-01-20T19:43:45.501Z,101087.08
2023-01-20T19:46:23.311Z,101078.98
2023-01-20T19:48:52.930Z,101076.39
2023-01-20T19:51:23.000Z,101062.57
2023-01-20T19:53:56.889Z,101060.91
2023-01-20T19:56:28.493Z,101066.74
2023-01-20T19:58:58.769Z,101063.96
2023-01-20T20:01:31.672Z,101059.85
2023-01-20T20:04:08.531Z,101063.48
2023-01-20T20:06:39.576Z,101063.55
2023-01-20T20:09:11.467Z,101059.41
2023-01-20T20:11:39.942Z,101062.41
2023-01-20T20:14:09.280Z,101063.54
2023-01-20T20:16:37.961Z,101062.09
2023-01-20T20:19:07.781Z,101060.60
2023-01-20T20:21:36.892Z,101062.59
2023-01-20T20:24:06.679Z,101064.80
2023-01-20T20:26:38.231Z,101067.48
2023-01-20T20:29:07.531Z,101073.12
2023-01-20T20:31:38.132Z,101076.69
2023-01-20T20:34:07.952Z,101076.85
2023-01-20T20:36:36.642Z,101077.80
2023-01-20T20:39:05.552Z,101075.95
2023-01-20T20:41:35.739Z,101079.59
2023-01-20T20:44:03.803Z,101080.29
2023-01-20T20:46:31.892Z,101079.34
2023-01-20T20:49:01.949Z,101080.58
2023-01-20T20:51:32.310Z,101073.66
2023-01-20T20:54:01.883Z,101071.54
2023-01-20T20:56:33.402Z,101070.63
2023-01-20T20:59:03.389Z,101078.32
2023-01-20T21:01:33.547Z,101079.13
2023-01-20T21:04:03.609Z,101080.54
2023-01-20T21:06:31.618Z,101078.70
2023-01-20T21:09:00.138Z,101073.95
2023-01-20T21:11:28.407Z,101074.99
2023-01-20T21:13:56.312Z,101067.89
2023-01-20T21:16:25.043Z,101070.01
2023-01-20T21:18:54.151Z,101063.34
2023-01-20T21:21:22.571Z,101070.14
2023-01-20T21:23:52.111Z,101068.04
2023-01-20T21:26:20.345Z,101057.55
2023-01-20T21:28:49.711Z,101057.33
2023-01-20T21:31:21.475Z,101053.05
2023-01-20T21:33:58.679Z,101053.58
2023-01-20T21:36:27.228Z,101050.32
2023-01-20T21:38:55.740Z,101049.81
2023-01-20T21:41:23.978Z,101055.59
2023-01-20T21:44:10.267Z,101054.11
2023-01-20T21:46:39.756Z,101051.63
2023-01-20T21:49:27.203Z,101049.44
2023-01-20T21:52:14.444Z,101051.11
2023-01-20T21:54:42.475Z,101046.27
2023-01-20T21:57:10.868Z,101044.48
2023-01-20T21:59:38.714Z,101039.37
2023-01-20T22:02:07.048Z,101034.05
2023-01-20T22:04:35.110Z,101031.10
2023-01-20T22:07:02.847Z,101034.56
2023-01-20T22:09:30.743Z,101040.99
2023-01-20T22:11:58.756Z,101044.96
2023-01-20T22:14:26.854Z,101044.66
2023-01-20T22:16:55.140Z,101049.71
2023-01-20T22:19:23.143Z,101040.16
2023-01-20T22:21:51.478Z,101044.04
2023-01-20T22:24:19.247Z,101043.52
2023-01-20T22:26:50.650Z,101043.51
2023-01-20T22:29:18.648Z,101042.39
2023-01-20T22:31:47.049Z,101042.80
2023-01-20T22:34:15.041Z,101036.80
2023-01-20T22:36:43.056Z,101041.73
2023-01-20T22:39:11.240Z,101044.98
2023-01-20T22:41:39.061Z,101045.90
2023-01-20T22:44:06.932Z,101046.35
2023-01-20T22:46:34.848Z,101043.20
2023-01-20T22:49:02.787Z,101042.09
2023-01-20T22:51:30.825Z,101048.45
2023-01-20T22:54:00.981Z,101038.36
2023-01-20T22:56:30.618Z,101039.85
2023-01-20T22:58:59.271Z,101049.21
2023-01-20T23:01:32.345Z,101055.29
2023-01-20T23:04:00.935Z,101055.01
2023-01-20T23:06:31.126Z,101048.23
2023-01-20T23:09:00.124Z,101050.14
2023-01-20T23:11:27.818Z,101038.59
2023-01-20T23:13:55.744Z,101028.48
2023-01-20T23:16:23.911Z,101023.61
2023-01-20T23:18:51.819Z,101031.75
2023-01-20T23:21:20.675Z,101054.88
2023-01-20T23:23:55.056Z,101061.54
2023-01-20T23:26:25.274Z,101057.38
2023-01-20T23:28:54.131Z,101057.17
2023-01-20T23:31:22.542Z,101067.01
2023-01-20T23:33:50.828Z,101064.48
2023-01-20T23:36:23.854Z,101072.33
2023-01-20T23:38:53.183Z,101085.17
2023-01-20T23:41:20.968Z,101085.73
2023-01-20T23:43:49.235Z,101080.47
2023-01-20T23:46:17.189Z,101078.30
2023-01-20T23:48:48.380Z,101084.21
2023-01-20T23:51:16.925Z,101086.05
2023-01-20T23:53:45.069Z,101079.21
2023-01-20T23:56:24.499Z,101074.21
2023-01-20T23:58:52.471Z,101054.48
